sensor_id;sensor_type;location;lat;lon;timestamp;P1;durP1;ratioP1;P2;durP2;ratioP2
26042;SDS011;13818;52.156;5.382;2023-05-07T00:01:31;13.85;;;8.07;;
26042;SDS011;13818;52.156;5.382;2023-05-07T00:03:59;14.43;;;9.00;;
26042;SDS011;13818;52.156;5.382;2023-05-07T00:06:25;14.38;;;8.95;;
26042;SDS011;13818;52.156;5.382;2023-05-07T00:08:53;11.77;;;8.07;;
26042;SDS011;13818;52.156;5.382;2023-05-07T00:11:20;15.05;;;8.32;;
26042;SDS011;13818;52.156;5.382;2023-05-07T00:13:47;13.52;;;8.60;;
26042;SDS011;13818;52.156;5.382;2023-05-07T00:16:13;15.93;;;8.73;;
26042;SDS011;13818;52.156;5.382;2023-05-07T00:18:40;15.00;;;7.95;;
26042;SDS011;13818;52.156;5.382;2023-05-07T00:21:08;14.20;;;8.73;;
26042;SDS011;13818;52.156;5.382;2023-05-07T00:23:34;18.98;;;8.93;;
26042;SDS011;13818;52.156;5.382;2023-05-07T00:26:01;13.40;;;7.85;;
26042;SDS011;13818;52.156;5.382;2023-05-07T00:28:27;11.93;;;7.82;;
26042;SDS011;13818;52.156;5.382;2023-05-07T00:30:54;12.02;;;7.93;;
26042;SDS011;13818;52.156;5.382;2023-05-07T00:33:20;18.15;;;8.27;;
26042;SDS011;13818;52.156;5.382;2023-05-07T00:35:47;15.18;;;7.82;;
26042;SDS011;13818;52.156;5.382;2023-05-07T00:38:15;14.18;;;8.50;;
26042;SDS011;13818;52.156;5.382;2023-05-07T00:40:41;15.30;;;8.52;;
26042;SDS011;13818;52.156;5.382;2023-05-07T00:43:08;12.30;;;8.15;;
26042;SDS011;13818;52.156;5.382;2023-05-07T00:45:34;19.33;;;9.05;;
26042;SDS011;13818;52.156;5.382;2023-05-07T00:48:01;14.70;;;7.90;;
26042;SDS011;13818;52.156;5.382;2023-05-07T00:50:29;15.15;;;8.48;;
26042;SDS011;13818;52.156;5.382;2023-05-07T00:52:56;15.13;;;8.30;;
26042;SDS011;13818;52.156;5.382;2023-05-07T00:55:24;14.20;;;9.23;;
26042;SDS011;13818;52.156;5.382;2023-05-07T00:57:51;15.65;;;8.52;;
26042;SDS011;13818;52.156;5.382;2023-05-07T01:00:18;13.85;;;8.30;;
26042;SDS011;13818;52.156;5.382;2023-05-07T01:02:45;14.73;;;8.93;;
26042;SDS011;13818;52.156;5.382;2023-05-07T01:05:12;15.93;;;8.90;;
26042;SDS011;13818;52.156;5.382;2023-05-07T01:07:41;13.85;;;8.55;;
26042;SDS011;13818;52.156;5.382;2023-05-07T01:10:08;12.75;;;8.30;;
26042;SDS011;13818;52.156;5.382;2023-05-07T01:12:38;17.70;;;9.20;;
26042;SDS011;13818;52.156;5.382;2023-05-07T01:15:08;16.73;;;8.13;;
26042;SDS011;13818;52.156;5.382;2023-05-07T01:17:35;14.35;;;8.52;;
26042;SDS011;13818;52.156;5.382;2023-05-07T01:20:03;15.70;;;7.95;;
26042;SDS011;13818;52.156;5.382;2023-05-07T01:22:33;12.18;;;7.78;;
26042;SDS011;13818;52.156;5.382;2023-05-07T01:25:01;13.30;;;8.20;;
26042;SDS011;13818;52.156;5.382;2023-05-07T01:27:29;14.45;;;8.65;;
26042;SDS011;13818;52.156;5.382;2023-05-07T01:29:55;15.70;;;8.70;;
26042;SDS011;13818;52.156;5.382;2023-05-07T01:32:23;12.63;;;8.68;;
26042;SDS011;13818;52.156;5.382;2023-05-07T01:34:57;13.40;;;8.70;;
26042;SDS011;13818;52.156;5.382;2023-05-07T01:37:24;15.13;;;8.95;;
26042;SDS011;13818;52.156;5.382;2023-05-07T01:39:53;14.65;;;8.25;;
26042;SDS011;13818;52.156;5.382;2023-05-07T01:42:20;14.23;;;8.23;;
26042;SDS011;13818;52.156;5.382;2023-05-07T01:44:47;13.43;;;8.35;;
26042;SDS011;13818;52.156;5.382;2023-05-07T01:47:14;13.77;;;7.95;;
26042;SDS011;13818;52.156;5.382;2023-05-07T01:49:41;14.38;;;8.40;;
26042;SDS011;13818;52.156;5.382;2023-05-07T01:52:09;13.02;;;7.65;;
26042;SDS011;13818;52.156;5.382;2023-05-07T01:54:36;13.50;;;8.35;;
26042;SDS011;13818;52.156;5.382;2023-05-07T01:57:05;15.23;;;9.30;;
26042;SDS011;13818;52.156;5.382;2023-05-07T01:59:31;15.07;;;9.27;;
26042;SDS011;13818;52.156;5.382;2023-05-07T02:01:58;17.75;;;9.60;;
26042;SDS011;13818;52.156;5.382;2023-05-07T02:04:24;15.98;;;9.30;;
26042;SDS011;13818;52.156;5.382;2023-05-07T02:06:53;15.40;;;7.88;;
26042;SDS011;13818;52.156;5.382;2023-05-07T02:09:19;14.47;;;8.60;;
26042;SDS011;13818;52.156;5.382;2023-05-07T02:11:46;14.40;;;8.45;;
26042;SDS011;13818;52.156;5.382;2023-05-07T02:14:14;17.25;;;9.40;;
26042;SDS011;13818;52.156;5.382;2023-05-07T02:16:40;14.93;;;9.18;;
26042;SDS011;13818;52.156;5.382;2023-05-07T02:19:07;15.32;;;9.00;;
26042;SDS011;13818;52.156;5.382;2023-05-07T02:21:33;17.40;;;9.80;;
26042;SDS011;13818;52.156;5.382;2023-05-07T02:24:00;18.52;;;9.52;;
26042;SDS011;13818;52.156;5.382;2023-05-07T02:26:26;17.60;;;10.13;;
26042;SDS011;13818;52.156;5.382;2023-05-07T02:28:53;17.38;;;10.10;;
26042;SDS011;13818;52.156;5.382;2023-05-07T02:31:21;15.85;;;10.18;;
26042;SDS011;13818;52.156;5.382;2023-05-07T02:33:47;14.63;;;8.25;;
26042;SDS011;13818;52.156;5.382;2023-05-07T02:36:14;15.38;;;8.93;;
26042;SDS011;13818;52.156;5.382;2023-05-07T02:38:41;16.13;;;9.07;;
26042;SDS011;13818;52.156;5.382;2023-05-07T02:41:08;15.50;;;9.65;;
26042;SDS011;13818;52.156;5.382;2023-05-07T02:43:34;17.85;;;9.93;;
26042;SDS011;13818;52.156;5.382;2023-05-07T02:46:01;17.02;;;9.95;;
26042;SDS011;13818;52.156;5.382;2023-05-07T02:48:30;21.83;;;9.95;;
26042;SDS011;13818;52.156;5.382;2023-05-07T02:50:56;15.63;;;9.90;;
26042;SDS011;13818;52.156;5.382;2023-05-07T02:53:23;16.20;;;10.00;;
26042;SDS011;13818;52.156;5.382;2023-05-07T02:55:51;15.05;;;9.80;;
26042;SDS011;13818;52.156;5.382;2023-05-07T02:58:18;18.48;;;10.55;;
26042;SDS011;13818;52.156;5.382;2023-05-07T03:00:44;18.83;;;9.98;;
26042;SDS011;13818;52.156;5.382;2023-05-07T03:03:11;19.08;;;11.52;;
26042;SDS011;13818;52.156;5.382;2023-05-07T03:05:39;22.45;;;10.52;;
26042;SDS011;13818;52.156;5.382;2023-05-07T03:08:05;17.48;;;11.05;;
26042;SDS011;13818;52.156;5.382;2023-05-07T03:10:33;19.20;;;10.77;;
26042;SDS011;13818;52.156;5.382;2023-05-07T03:13:00;17.17;;;10.40;;
26042;SDS011;13818;52.156;5.382;2023-05-07T03:15:27;21.27;;;11.57;;
26042;SDS011;13818;52.156;5.382;2023-05-07T03:17:53;19.90;;;10.63;;
26042;SDS011;13818;52.156;5.382;2023-05-07T03:20:20;22.60;;;11.93;;
26042;SDS011;13818;52.156;5.382;2023-05-07T03:22:48;21.50;;;11.45;;
26042;SDS011;13818;52.156;5.382;2023-05-07T03:25:15;20.60;;;11.85;;
26042;SDS011;13818;52.156;5.382;2023-05-07T03:27:42;20.13;;;11.52;;
26042;SDS011;13818;52.156;5.382;2023-05-07T03:30:09;19.13;;;11.60;;
26042;SDS011;13818;52.156;5.382;2023-05-07T03:32:37;21.17;;;11.40;;
26042;SDS011;13818;52.156;5.382;2023-05-07T03:35:03;19.35;;;11.13;;
26042;SDS011;13818;52.156;5.382;2023-05-07T03:37:30;17.15;;;10.68;;
26042;SDS011;13818;52.156;5.382;2023-05-07T03:39:58;23.85;;;10.38;;
26042;SDS011;13818;52.156;5.382;2023-05-07T03:42:25;18.17;;;10.90;;
26042;SDS011;13818;52.156;5.382;2023-05-07T03:44:51;21.85;;;10.35;;
26042;SDS011;13818;52.156;5.382;2023-05-07T03:47:18;18.45;;;11.48;;
26042;SDS011;13818;52.156;5.382;2023-05-07T03:49:44;18.52;;;10.50;;
26042;SDS011;13818;52.156;5.382;2023-05-07T03:52:11;20.20;;;11.27;;
26042;SDS011;13818;52.156;5.382;2023-05-07T03:54:37;19.17;;;11.32;;
26042;SDS011;13818;52.156;5.382;2023-05-07T03:57:05;22.25;;;11.60;;
26042;SDS011;13818;52.156;5.382;2023-05-07T03:59:32;21.52;;;11.40;;
26042;SDS011;13818;52.156;5.382;2023-05-07T04:01:58;23.05;;;12.15;;
26042;SDS011;13818;52.156;5.382;2023-05-07T04:04:25;22.35;;;11.80;;
26042;SDS011;13818;52.156;5.382;2023-05-07T04:06:51;19.70;;;10.95;;
26042;SDS011;13818;52.156;5.382;2023-05-07T04:09:18;24.17;;;11.75;;
26042;SDS011;13818;52.156;5.382;2023-05-07T04:11:46;23.85;;;11.18;;
26042;SDS011;13818;52.156;5.382;2023-05-07T04:14:14;19.10;;;11.68;;
26042;SDS011;13818;52.156;5.382;2023-05-07T04:16:41;21.55;;;11.77;;
26042;SDS011;13818;52.156;5.382;2023-05-07T04:19:07;20.63;;;10.75;;
26042;SDS011;13818;52.156;5.382;2023-05-07T04:21:34;20.50;;;11.20;;
26042;SDS011;13818;52.156;5.382;2023-05-07T04:24:02;24.77;;;12.07;;
26042;SDS011;13818;52.156;5.382;2023-05-07T04:26:29;21.77;;;12.68;;
26042;SDS011;13818;52.156;5.382;2023-05-07T04:28:56;21.25;;;11.80;;
26042;SDS011;13818;52.156;5.382;2023-05-07T04:31:25;21.55;;;11.90;;
26042;SDS011;13818;52.156;5.382;2023-05-07T04:33:52;19.98;;;11.15;;
26042;SDS011;13818;52.156;5.382;2023-05-07T04:36:18;19.83;;;11.05;;
26042;SDS011;13818;52.156;5.382;2023-05-07T04:38:45;21.20;;;11.50;;
26042;SDS011;13818;52.156;5.382;2023-05-07T04:41:12;21.30;;;12.10;;
26042;SDS011;13818;52.156;5.382;2023-05-07T04:43:38;20.58;;;11.75;;
26042;SDS011;13818;52.156;5.382;2023-05-07T04:46:06;23.90;;;12.15;;
26042;SDS011;13818;52.156;5.382;2023-05-07T04:48:34;18.55;;;11.50;;
26042;SDS011;13818;52.156;5.382;2023-05-07T04:51:01;24.48;;;11.73;;
26042;SDS011;13818;52.156;5.382;2023-05-07T04:53:27;23.83;;;11.63;;
26042;SDS011;13818;52.156;5.382;2023-05-07T04:55:57;22.05;;;11.20;;
26042;SDS011;13818;52.156;5.382;2023-05-07T04:58:24;20.63;;;11.70;;
26042;SDS011;13818;52.156;5.382;2023-05-07T05:00:51;20.38;;;11.55;;
26042;SDS011;13818;52.156;5.382;2023-05-07T05:03:17;22.75;;;11.35;;
26042;SDS011;13818;52.156;5.382;2023-05-07T05:05:46;22.63;;;11.63;;
26042;SDS011;13818;52.156;5.382;2023-05-07T05:08:13;21.88;;;11.63;;
26042;SDS011;13818;52.156;5.382;2023-05-07T05:10:40;22.40;;;11.13;;
26042;SDS011;13818;52.156;5.382;2023-05-07T05:13:08;22.75;;;11.38;;
26042;SDS011;13818;52.156;5.382;2023-05-07T05:15:34;22.30;;;11.50;;
26042;SDS011;13818;52.156;5.382;2023-05-07T05:18:01;22.38;;;11.80;;
26042;SDS011;13818;52.156;5.382;2023-05-07T05:20:27;19.80;;;11.43;;
26042;SDS011;13818;52.156;5.382;2023-05-07T05:22:56;25.02;;;12.65;;
26042;SDS011;13818;52.156;5.382;2023-05-07T05:25:22;25.33;;;12.98;;
26042;SDS011;13818;52.156;5.382;2023-05-07T05:27:49;23.98;;;12.60;;
26042;SDS011;13818;52.156;5.382;2023-05-07T05:30:15;20.08;;;12.35;;
26042;SDS011;13818;52.156;5.382;2023-05-07T05:32:42;24.80;;;12.63;;
26042;SDS011;13818;52.156;5.382;2023-05-07T05:35:08;23.73;;;12.85;;
26042;SDS011;13818;52.156;5.382;2023-05-07T05:37:35;22.73;;;13.52;;
26042;SDS011;13818;52.156;5.382;2023-05-07T05:40:05;24.55;;;12.95;;
26042;SDS011;13818;52.156;5.382;2023-05-07T05:42:32;24.70;;;13.10;;
26042;SDS011;13818;52.156;5.382;2023-05-07T05:44:59;25.85;;;13.43;;
26042;SDS011;13818;52.156;5.382;2023-05-07T05:47:25;26.27;;;13.15;;
26042;SDS011;13818;52.156;5.382;2023-05-07T05:49:52;27.67;;;13.25;;
26042;SDS011;13818;52.156;5.382;2023-05-07T05:52:18;23.23;;;12.48;;
26042;SDS011;13818;52.156;5.382;2023-05-07T05:54:45;24.92;;;12.80;;
26042;SDS011;13818;52.156;5.382;2023-05-07T05:57:13;26.55;;;13.70;;
26042;SDS011;13818;52.156;5.382;2023-05-07T05:59:39;22.38;;;12.57;;
26042;SDS011;13818;52.156;5.382;2023-05-07T06:02:07;22.27;;;13.18;;
26042;SDS011;13818;52.156;5.382;2023-05-07T06:04:33;22.98;;;12.80;;
26042;SDS011;13818;52.156;5.382;2023-05-07T06:07:00;26.52;;;13.27;;
26042;SDS011;13818;52.156;5.382;2023-05-07T06:09:26;23.25;;;13.40;;
26042;SDS011;13818;52.156;5.382;2023-05-07T06:11:52;23.88;;;13.40;;
26042;SDS011;13818;52.156;5.382;2023-05-07T06:14:20;23.70;;;13.13;;
26042;SDS011;13818;52.156;5.382;2023-05-07T06:16:47;23.65;;;13.07;;
26042;SDS011;13818;52.156;5.382;2023-05-07T06:19:13;20.42;;;12.40;;
26042;SDS011;13818;52.156;5.382;2023-05-07T06:21:43;25.02;;;13.57;;
26042;SDS011;13818;52.156;5.382;2023-05-07T06:24:09;29.08;;;13.25;;
26042;SDS011;13818;52.156;5.382;2023-05-07T06:26:36;21.17;;;12.68;;
26042;SDS011;13818;52.156;5.382;2023-05-07T06:29:02;26.10;;;13.10;;
26042;SDS011;13818;52.156;5.382;2023-05-07T06:31:30;28.30;;;13.73;;
26042;SDS011;13818;52.156;5.382;2023-05-07T06:33:57;25.17;;;13.48;;
26042;SDS011;13818;52.156;5.382;2023-05-07T06:36:25;27.38;;;14.07;;
26042;SDS011;13818;52.156;5.382;2023-05-07T06:38:51;22.65;;;13.40;;
26042;SDS011;13818;52.156;5.382;2023-05-07T06:41:18;24.33;;;13.80;;
26042;SDS011;13818;52.156;5.382;2023-05-07T06:43:45;26.67;;;13.40;;
26042;SDS011;13818;52.156;5.382;2023-05-07T06:46:12;25.33;;;13.18;;
26042;SDS011;13818;52.156;5.382;2023-05-07T06:48:39;22.75;;;12.85;;
26042;SDS011;13818;52.156;5.382;2023-05-07T06:51:06;26.05;;;14.00;;
26042;SDS011;13818;52.156;5.382;2023-05-07T06:53:32;26.83;;;14.18;;
26042;SDS011;13818;52.156;5.382;2023-05-07T06:55:59;28.08;;;14.40;;
26042;SDS011;13818;52.156;5.382;2023-05-07T06:58:26;24.92;;;13.38;;
26042;SDS011;13818;52.156;5.382;2023-05-07T07:00:52;28.30;;;15.27;;
26042;SDS011;13818;52.156;5.382;2023-05-07T07:03:19;23.52;;;13.70;;
26042;SDS011;13818;52.156;5.382;2023-05-07T07:05:47;28.77;;;14.77;;
26042;SDS011;13818;52.156;5.382;2023-05-07T07:08:14;30.10;;;14.48;;
26042;SDS011;13818;52.156;5.382;2023-05-07T07:13:09;27.15;;;13.85;;
26042;SDS011;13818;52.156;5.382;2023-05-07T07:15:36;26.40;;;14.68;;
26042;SDS011;13818;52.156;5.382;2023-05-07T07:18:02;27.10;;;13.27;;
26042;SDS011;13818;52.156;5.382;2023-05-07T07:20:29;23.35;;;13.27;;
26042;SDS011;13818;52.156;5.382;2023-05-07T07:22:56;28.23;;;13.20;;
26042;SDS011;13818;52.156;5.382;2023-05-07T07:25:23;23.95;;;12.55;;
26042;SDS011;13818;52.156;5.382;2023-05-07T07:27:49;24.27;;;13.88;;
26042;SDS011;13818;52.156;5.382;2023-05-07T07:30:16;22.58;;;12.20;;
26042;SDS011;13818;52.156;5.382;2023-05-07T07:32:43;21.67;;;11.80;;
26042;SDS011;13818;52.156;5.382;2023-05-07T07:35:09;21.60;;;12.38;;
26042;SDS011;13818;52.156;5.382;2023-05-07T07:37:36;21.20;;;11.85;;
26042;SDS011;13818;52.156;5.382;2023-05-07T07:40:04;21.80;;;12.10;;
26042;SDS011;13818;52.156;5.382;2023-05-07T07:42:32;19.13;;;10.68;;
26042;SDS011;13818;52.156;5.382;2023-05-07T07:44:58;21.85;;;11.15;;
26042;SDS011;13818;52.156;5.382;2023-05-07T07:47:25;19.10;;;10.50;;
26042;SDS011;13818;52.156;5.382;2023-05-07T07:49:51;19.73;;;11.45;;
26042;SDS011;13818;52.156;5.382;2023-05-07T07:52:18;19.45;;;10.80;;
26042;SDS011;13818;52.156;5.382;2023-05-07T07:54:45;17.55;;;10.43;;
26042;SDS011;13818;52.156;5.382;2023-05-07T07:57:12;15.40;;;9.57;;
26042;SDS011;13818;52.156;5.382;2023-05-07T07:59:39;18.88;;;9.50;;
26042;SDS011;13818;52.156;5.382;2023-05-07T08:02:08;16.02;;;9.55;;
26042;SDS011;13818;52.156;5.382;2023-05-07T08:04:34;15.85;;;10.02;;
26042;SDS011;13818;52.156;5.382;2023-05-07T08:07:02;18.30;;;11.02;;
26042;SDS011;13818;52.156;5.382;2023-05-07T08:09:28;17.17;;;10.57;;
26042;SDS011;13818;52.156;5.382;2023-05-07T08:11:55;19.20;;;10.63;;
26042;SDS011;13818;52.156;5.382;2023-05-07T08:14:23;19.20;;;10.98;;
26042;SDS011;13818;52.156;5.382;2023-05-07T08:16:50;16.17;;;10.35;;
26042;SDS011;13818;52.156;5.382;2023-05-07T08:19:16;21.42;;;11.30;;
26042;SDS011;13818;52.156;5.382;2023-05-07T08:21:43;17.17;;;10.50;;
26042;SDS011;13818;52.156;5.382;2023-05-07T08:24:09;18.88;;;11.77;;
26042;SDS011;13818;52.156;5.382;2023-05-07T08:26:36;21.38;;;11.57;;
26042;SDS011;13818;52.156;5.382;2023-05-07T08:29:04;23.60;;;13.18;;
26042;SDS011;13818;52.156;5.382;2023-05-07T08:31:32;25.98;;;13.10;;
26042;SDS011;13818;52.156;5.382;2023-05-07T08:33:59;21.27;;;11.93;;
26042;SDS011;13818;52.156;5.382;2023-05-07T08:36:26;20.58;;;13.50;;
26042;SDS011;13818;52.156;5.382;2023-05-07T08:38:53;25.20;;;14.10;;
26042;SDS011;13818;52.156;5.382;2023-05-07T08:41:20;24.92;;;14.63;;
26042;SDS011;13818;52.156;5.382;2023-05-07T08:43:47;24.52;;;13.55;;
26042;SDS011;13818;52.156;5.382;2023-05-07T08:46:16;28.17;;;15.00;;
26042;SDS011;13818;52.156;5.382;2023-05-07T08:48:48;24.90;;;14.80;;
26042;SDS011;13818;52.156;5.382;2023-05-07T08:51:16;27.10;;;14.60;;
26042;SDS011;13818;52.156;5.382;2023-05-07T08:53:43;24.25;;;14.77;;
26042;SDS011;13818;52.156;5.382;2023-05-07T08:56:11;25.55;;;13.80;;
26042;SDS011;13818;52.156;5.382;2023-05-07T08:58:38;23.45;;;13.57;;
26042;SDS011;13818;52.156;5.382;2023-05-07T09:01:07;24.90;;;14.45;;
26042;SDS011;13818;52.156;5.382;2023-05-07T09:03:34;27.63;;;14.10;;
26042;SDS011;13818;52.156;5.382;2023-05-07T09:06:04;25.63;;;14.55;;
26042;SDS011;13818;52.156;5.382;2023-05-07T09:08:32;22.95;;;13.73;;
26042;SDS011;13818;52.156;5.382;2023-05-07T09:10:59;25.52;;;14.00;;
26042;SDS011;13818;52.156;5.382;2023-05-07T09:13:26;23.60;;;13.60;;
26042;SDS011;13818;52.156;5.382;2023-05-07T09:15:53;24.70;;;12.68;;
26042;SDS011;13818;52.156;5.382;2023-05-07T09:18:20;25.75;;;13.55;;
26042;SDS011;13818;52.156;5.382;2023-05-07T09:20:47;23.35;;;13.30;;
26042;SDS011;13818;52.156;5.382;2023-05-07T09:23:15;22.08;;;12.98;;
26042;SDS011;13818;52.156;5.382;2023-05-07T09:25:42;23.20;;;13.20;;
26042;SDS011;13818;52.156;5.382;2023-05-07T09:28:08;25.35;;;13.60;;
26042;SDS011;13818;52.156;5.382;2023-05-07T09:30:37;24.90;;;13.40;;
26042;SDS011;13818;52.156;5.382;2023-05-07T09:33:05;25.03;;;12.00;;
26042;SDS011;13818;52.156;5.382;2023-05-07T09:35:39;26.02;;;12.93;;
26042;SDS011;13818;52.156;5.382;2023-05-07T09:38:06;21.58;;;13.07;;
26042;SDS011;13818;52.156;5.382;2023-05-07T09:40:36;21.67;;;12.20;;
26042;SDS011;13818;52.156;5.382;2023-05-07T09:43:09;17.95;;;11.45;;
26042;SDS011;13818;52.156;5.382;2023-05-07T09:45:37;21.73;;;10.88;;
26042;SDS011;13818;52.156;5.382;2023-05-07T09:48:04;21.33;;;10.90;;
26042;SDS011;13818;52.156;5.382;2023-05-07T09:50:32;20.45;;;11.57;;
26042;SDS011;13818;52.156;5.382;2023-05-07T09:53:03;19.92;;;11.05;;
26042;SDS011;13818;52.156;5.382;2023-05-07T09:55:29;19.38;;;11.15;;
26042;SDS011;13818;52.156;5.382;2023-05-07T09:57:58;21.92;;;11.82;;
26042;SDS011;13818;52.156;5.382;2023-05-07T10:00:28;20.98;;;11.20;;
26042;SDS011;13818;52.156;5.382;2023-05-07T10:02:56;22.33;;;11.70;;
26042;SDS011;13818;52.156;5.382;2023-05-07T10:05:24;19.60;;;10.07;;
26042;SDS011;13818;52.156;5.382;2023-05-07T10:07:51;17.48;;;10.23;;
26042;SDS011;13818;52.156;5.382;2023-05-07T10:10:19;16.15;;;9.80;;
26042;SDS011;13818;52.156;5.382;2023-05-07T10:12:46;21.05;;;10.18;;
26042;SDS011;13818;52.156;5.382;2023-05-07T10:15:14;16.48;;;8.73;;
26042;SDS011;13818;52.156;5.382;2023-05-07T10:17:41;19.17;;;9.35;;
26042;SDS011;13818;52.156;5.382;2023-05-07T10:20:08;15.82;;;9.10;;
26042;SDS011;13818;52.156;5.382;2023-05-07T10:22:37;19.17;;;10.13;;
26042;SDS011;13818;52.156;5.382;2023-05-07T10:25:06;18.25;;;8.98;;
26042;SDS011;13818;52.156;5.382;2023-05-07T10:27:36;18.45;;;9.10;;
26042;SDS011;13818;52.156;5.382;2023-05-07T10:30:05;19.00;;;9.07;;
26042;SDS011;13818;52.156;5.382;2023-05-07T10:32:40;15.43;;;8.82;;
26042;SDS011;13818;52.156;5.382;2023-05-07T10:35:10;15.27;;;8.38;;
26042;SDS011;13818;52.156;5.382;2023-05-07T10:37:43;20.48;;;9.20;;
26042;SDS011;13818;52.156;5.382;2023-05-07T10:40:11;15.57;;;8.43;;
26042;SDS011;13818;52.156;5.382;2023-05-07T10:42:39;16.73;;;9.27;;
26042;SDS011;13818;52.156;5.382;2023-05-07T10:45:19;18.80;;;9.45;;
26042;SDS011;13818;52.156;5.382;2023-05-07T10:50:36;17.80;;;10.07;;
26042;SDS011;13818;52.156;5.382;2023-05-07T10:58:52;16.48;;;9.15;;
26042;SDS011;13818;52.156;5.382;2023-05-07T11:04:17;19.48;;;10.07;;
26042;SDS011;13818;52.156;5.382;2023-05-07T11:09:54;18.27;;;10.02;;
26042;SDS011;13818;52.156;5.382;2023-05-07T11:18:06;17.52;;;9.55;;
26042;SDS011;13818;52.156;5.382;2023-05-07T11:20:48;20.10;;;10.30;;
26042;SDS011;13818;52.156;5.382;2023-05-07T11:26:42;19.92;;;10.13;;
26042;SDS011;13818;52.156;5.382;2023-05-07T11:29:10;17.65;;;10.27;;
26042;SDS011;13818;52.156;5.382;2023-05-07T11:31:37;18.58;;;10.65;;
26042;SDS011;13818;52.156;5.382;2023-05-07T11:34:04;18.95;;;10.18;;
26042;SDS011;13818;52.156;5.382;2023-05-07T11:36:33;16.60;;;10.15;;
26042;SDS011;13818;52.156;5.382;2023-05-07T11:38:59;22.73;;;10.70;;
26042;SDS011;13818;52.156;5.382;2023-05-07T11:41:33;18.85;;;10.68;;
26042;SDS011;13818;52.156;5.382;2023-05-07T11:44:00;17.00;;;10.15;;
26042;SDS011;13818;52.156;5.382;2023-05-07T11:46:28;20.05;;;11.07;;
26042;SDS011;13818;52.156;5.382;2023-05-07T11:48:55;21.20;;;12.07;;
26042;SDS011;13818;52.156;5.382;2023-05-07T11:51:22;22.65;;;11.32;;
26042;SDS011;13818;52.156;5.382;2023-05-07T11:53:52;21.95;;;11.15;;
26042;SDS011;13818;52.156;5.382;2023-05-07T11:56:19;20.95;;;11.15;;
26042;SDS011;13818;52.156;5.382;2023-05-07T11:58:46;19.05;;;10.93;;
26042;SDS011;13818;52.156;5.382;2023-05-07T12:01:14;18.70;;;10.67;;
26042;SDS011;13818;52.156;5.382;2023-05-07T12:03:44;21.35;;;10.85;;
26042;SDS011;13818;52.156;5.382;2023-05-07T12:06:12;21.30;;;11.63;;
26042;SDS011;13818;52.156;5.382;2023-05-07T12:08:40;19.85;;;11.30;;
26042;SDS011;13818;52.156;5.382;2023-05-07T12:11:09;23.45;;;12.20;;
26042;SDS011;13818;52.156;5.382;2023-05-07T12:13:38;21.10;;;10.95;;
26042;SDS011;13818;52.156;5.382;2023-05-07T12:16:05;20.48;;;11.48;;
26042;SDS011;13818;52.156;5.382;2023-05-07T12:18:33;21.58;;;11.93;;
26042;SDS011;13818;52.156;5.382;2023-05-07T12:21:01;18.17;;;11.18;;
26042;SDS011;13818;52.156;5.382;2023-05-07T12:23:28;24.08;;;12.02;;
26042;SDS011;13818;52.156;5.382;2023-05-07T12:25:55;21.10;;;11.50;;
26042;SDS011;13818;52.156;5.382;2023-05-07T12:28:23;20.45;;;11.82;;
26042;SDS011;13818;52.156;5.382;2023-05-07T12:30:50;20.85;;;13.23;;
26042;SDS011;13818;52.156;5.382;2023-05-07T12:33:17;21.05;;;11.60;;
26042;SDS011;13818;52.156;5.382;2023-05-07T12:35:47;19.98;;;11.23;;
26042;SDS011;13818;52.156;5.382;2023-05-07T12:38:16;20.67;;;11.77;;
26042;SDS011;13818;52.156;5.382;2023-05-07T12:40:45;17.63;;;10.85;;
26042;SDS011;13818;52.156;5.382;2023-05-07T12:43:16;21.10;;;11.57;;
26042;SDS011;13818;52.156;5.382;2023-05-07T12:45:45;23.23;;;11.55;;
26042;SDS011;13818;52.156;5.382;2023-05-07T12:48:13;21.38;;;11.95;;
26042;SDS011;13818;52.156;5.382;2023-05-07T12:50:39;16.58;;;10.38;;
26042;SDS011;13818;52.156;5.382;2023-05-07T12:53:06;18.92;;;11.80;;
26042;SDS011;13818;52.156;5.382;2023-05-07T12:55:40;22.25;;;11.23;;
26042;SDS011;13818;52.156;5.382;2023-05-07T12:58:08;21.40;;;11.07;;
26042;SDS011;13818;52.156;5.382;2023-05-07T13:00:42;18.95;;;10.38;;
26042;SDS011;13818;52.156;5.382;2023-05-07T13:03:10;18.00;;;10.38;;
26042;SDS011;13818;52.156;5.382;2023-05-07T13:05:36;18.60;;;11.38;;
26042;SDS011;13818;52.156;5.382;2023-05-07T13:08:03;19.58;;;11.80;;
26042;SDS011;13818;52.156;5.382;2023-05-07T13:10:30;19.17;;;11.52;;
26042;SDS011;13818;52.156;5.382;2023-05-07T13:12:57;17.65;;;10.40;;
26042;SDS011;13818;52.156;5.382;2023-05-07T13:15:24;16.65;;;9.75;;
26042;SDS011;13818;52.156;5.382;2023-05-07T13:17:52;15.45;;;9.43;;
26042;SDS011;13818;52.156;5.382;2023-05-07T13:20:19;13.90;;;7.57;;
26042;SDS011;13818;52.156;5.382;2023-05-07T13:22:46;12.30;;;6.07;;
26042;SDS011;13818;52.156;5.382;2023-05-07T13:25:12;10.13;;;5.72;;
26042;SDS011;13818;52.156;5.382;2023-05-07T13:27:39;9.48;;;5.60;;
26042;SDS011;13818;52.156;5.382;2023-05-07T13:30:06;11.40;;;5.82;;
26042;SDS011;13818;52.156;5.382;2023-05-07T13:32:33;10.02;;;5.30;;
26042;SDS011;13818;52.156;5.382;2023-05-07T13:35:00;13.30;;;5.72;;
26042;SDS011;13818;52.156;5.382;2023-05-07T13:37:28;13.95;;;7.60;;
26042;SDS011;13818;52.156;5.382;2023-05-07T13:39:55;10.40;;;6.40;;
26042;SDS011;13818;52.156;5.382;2023-05-07T13:42:21;12.52;;;7.25;;
26042;SDS011;13818;52.156;5.382;2023-05-07T13:44:48;14.23;;;7.22;;
26042;SDS011;13818;52.156;5.382;2023-05-07T13:47:14;16.45;;;9.65;;
26042;SDS011;13818;52.156;5.382;2023-05-07T13:49:41;16.30;;;8.82;;
26042;SDS011;13818;52.156;5.382;2023-05-07T13:52:13;14.77;;;9.00;;
26042;SDS011;13818;52.156;5.382;2023-05-07T13:54:42;13.93;;;8.52;;
26042;SDS011;13818;52.156;5.382;2023-05-07T13:57:08;18.45;;;10.25;;
26042;SDS011;13818;52.156;5.382;2023-05-07T13:59:35;13.93;;;9.00;;
26042;SDS011;13818;52.156;5.382;2023-05-07T14:02:01;17.30;;;9.27;;
26042;SDS011;13818;52.156;5.382;2023-05-07T14:04:28;17.27;;;10.50;;
26042;SDS011;13818;52.156;5.382;2023-05-07T14:06:54;21.33;;;10.40;;
26042;SDS011;13818;52.156;5.382;2023-05-07T14:09:21;22.10;;;10.85;;
26042;SDS011;13818;52.156;5.382;2023-05-07T14:11:49;20.73;;;10.43;;
26042;SDS011;13818;52.156;5.382;2023-05-07T14:14:16;19.25;;;11.00;;
26042;SDS011;13818;52.156;5.382;2023-05-07T14:16:43;17.08;;;10.00;;
26042;SDS011;13818;52.156;5.382;2023-05-07T14:19:09;19.05;;;9.93;;
26042;SDS011;13818;52.156;5.382;2023-05-07T14:21:36;20.35;;;10.57;;
26042;SDS011;13818;52.156;5.382;2023-05-07T14:24:02;19.02;;;10.57;;
26042;SDS011;13818;52.156;5.382;2023-05-07T14:26:29;20.27;;;10.75;;
26042;SDS011;13818;52.156;5.382;2023-05-07T14:28:57;18.20;;;10.45;;
26042;SDS011;13818;52.156;5.382;2023-05-07T14:31:24;20.13;;;10.52;;
26042;SDS011;13818;52.156;5.382;2023-05-07T14:33:50;19.30;;;10.25;;
26042;SDS011;13818;52.156;5.382;2023-05-07T14:36:17;19.38;;;9.73;;
26042;SDS011;13818;52.156;5.382;2023-05-07T14:38:45;22.05;;;9.98;;
26042;SDS011;13818;52.156;5.382;2023-05-07T14:41:11;20.58;;;10.10;;
26042;SDS011;13818;52.156;5.382;2023-05-07T14:43:38;20.70;;;10.55;;
26042;SDS011;13818;52.156;5.382;2023-05-07T14:46:05;23.67;;;12.23;;
26042;SDS011;13818;52.156;5.382;2023-05-07T14:48:32;19.05;;;11.02;;
26042;SDS011;13818;52.156;5.382;2023-05-07T14:50:58;21.02;;;10.52;;
26042;SDS011;13818;52.156;5.382;2023-05-07T14:53:25;18.70;;;9.93;;